createdAt,value
2018-01-24T00:00:43.883Z,4.33
2018-01-24T00:03:11.508Z,3.50
2018-01-24T00:05:39.458Z,2.50
2018-01-24T00:08:07.038Z,4.00
2018-01-24T00:10:35.810Z,4.10
2018-01-24T00:13:03.399Z,3.40
2018-01-24T00:15:31.927Z,3.10
2018-01-24T00:18:00.025Z,3.23
2018-01-24T00:20:28.627Z,2.97
2018-01-24T00:22:56.360Z,3.93
2018-01-24T00:25:24.059Z,3.67
2018-01-24T00:27:52.426Z,3.30
2018-01-24T00:30:20.385Z,4.20
2018-01-24T00:32:48.240Z,3.07
2018-01-24T00:35:15.826Z,2.97
2018-01-24T00:37:43.409Z,3.70
2018-01-24T00:40:11.234Z,2.70
2018-01-24T00:42:39.510Z,3.70
2018-01-24T00:45:07.114Z,3.27
2018-01-24T00:47:34.695Z,3.00
2018-01-24T00:50:02.260Z,3.20
2018-01-24T00:52:29.840Z,2.63
2018-01-24T00:54:57.968Z,3.27
2018-01-24T00:57:25.809Z,3.40
2018-01-24T00:59:53.863Z,2.73
2018-01-24T01:02:22.316Z,2.33
2018-01-24T01:04:50.030Z,2.90
2018-01-24T01:07:17.612Z,4.00
2018-01-24T01:09:46.229Z,2.97
2018-01-24T01:12:14.023Z,2.73
2018-01-24T01:14:41.621Z,3.10
2018-01-24T01:17:09.325Z,2.80
2018-01-24T01:19:37.990Z,2.63
2018-01-24T01:22:05.840Z,2.40
2018-01-24T01:24:33.573Z,3.37
2018-01-24T01:27:01.437Z,3.30
2018-01-24T01:29:29.864Z,2.33
2018-01-24T01:31:58.059Z,2.47
2018-01-24T01:34:25.838Z,3.00
2018-01-24T01:36:53.533Z,3.20
2018-01-24T01:39:22.304Z,2.93
2018-01-24T01:41:50.526Z,2.87
2018-01-24T01:44:18.399Z,2.80
2018-01-24T01:46:46.784Z,3.23
2018-01-24T01:49:14.382Z,2.80
2018-01-24T01:51:42.559Z,2.93
2018-01-24T01:54:11.092Z,2.90
2018-01-24T01:56:38.983Z,2.40
2018-01-24T01:59:08.651Z,3.30
2018-01-24T02:01:37.351Z,2.60
2018-01-24T02:04:05.087Z,4.03
2018-01-24T02:06:32.707Z,2.70
2018-01-24T02:09:00.934Z,2.73
2018-01-24T02:11:28.534Z,3.00
2018-01-24T02:13:56.963Z,2.40
2018-01-24T02:16:24.602Z,3.00
2018-01-24T02:18:52.173Z,2.13
2018-01-24T02:21:20.052Z,3.43
2018-01-24T02:23:48.633Z,2.83
2018-01-24T02:26:16.205Z,2.73
2018-01-24T02:28:43.874Z,2.60
2018-01-24T02:31:11.744Z,2.53
2018-01-24T02:33:40.523Z,3.00
2018-01-24T02:36:08.414Z,2.70
2018-01-24T02:38:42.791Z,2.87
2018-01-24T02:41:10.490Z,3.33
2018-01-24T02:43:38.450Z,2.90
2018-01-24T02:46:06.679Z,3.20
2018-01-24T02:48:40.281Z,3.10
2018-01-24T02:51:07.923Z,2.87
2018-01-24T02:53:35.968Z,2.43
2018-01-24T02:56:04.751Z,3.17
2018-01-24T02:58:32.833Z,2.80
2018-01-24T03:01:00.383Z,3.17
2018-01-24T03:03:31.925Z,3.80
2018-01-24T03:05:59.861Z,2.53
2018-01-24T03:08:27.481Z,3.17
2018-01-24T03:10:57.051Z,2.87
2018-01-24T03:13:24.852Z,3.63
2018-01-24T03:15:53.218Z,2.87
2018-01-24T03:18:20.979Z,2.50
2018-01-24T03:20:48.850Z,3.13
2018-01-24T03:23:17.556Z,2.27
2018-01-24T03:25:45.187Z,3.30
2018-01-24T03:28:13.101Z,3.10
2018-01-24T03:30:40.747Z,2.63
2018-01-24T03:33:09.956Z,2.50
2018-01-24T03:35:38.099Z,2.73
2018-01-24T03:38:05.958Z,2.87
2018-01-24T03:40:33.541Z,3.50
2018-01-24T03:43:02.200Z,2.73
2018-01-24T03:45:30.053Z,2.90
2018-01-24T03:47:57.793Z,2.60
2018-01-24T03:50:26.457Z,2.90
2018-01-24T03:52:54.205Z,2.67
2018-01-24T03:55:23.598Z,2.73
2018-01-24T03:57:51.875Z,2.70
2018-01-24T04:00:19.961Z,3.00
2018-01-24T04:02:47.768Z,3.00
2018-01-24T04:05:15.584Z,3.00
2018-01-24T04:07:43.396Z,3.20
2018-01-24T04:10:11.762Z,2.77
2018-01-24T04:12:39.571Z,3.20
2018-01-24T04:15:08.175Z,2.57
2018-01-24T04:17:35.854Z,3.23
2018-01-24T04:20:03.457Z,3.00
2018-01-24T04:22:31.089Z,3.83
2018-01-24T04:24:59.040Z,3.57
2018-01-24T04:27:26.683Z,3.10
2018-01-24T04:29:54.272Z,3.87
2018-01-24T04:32:21.892Z,2.93
2018-01-24T04:34:49.852Z,3.70
2018-01-24T04:37:17.581Z,5.40
2018-01-24T04:39:45.805Z,4.00
2018-01-24T04:42:13.575Z,4.17
2018-01-24T04:44:41.373Z,3.73
2018-01-24T04:47:09.231Z,3.53
2018-01-24T04:49:37.098Z,4.27
2018-01-24T04:52:04.977Z,3.87
2018-01-24T04:54:33.190Z,4.90
2018-01-24T04:57:01.805Z,4.60
2018-01-24T04:59:29.399Z,3.93
2018-01-24T05:01:57.454Z,3.70
2018-01-24T05:04:25.595Z,4.13
2018-01-24T05:06:53.539Z,3.70
2018-01-24T05:09:21.426Z,3.93
2018-01-24T05:11:49.042Z,4.03
2018-01-24T05:14:17.451Z,3.70
2018-01-24T05:16:46.101Z,3.70
2018-01-24T05:19:14.455Z,4.10
2018-01-24T05:21:42.143Z,4.87
2018-01-24T05:24:12.576Z,4.20
2018-01-24T05:26:40.443Z,4.63
2018-01-24T05:29:08.319Z,4.73
2018-01-24T05:31:36.452Z,4.37
2018-01-24T05:34:04.938Z,3.40
2018-01-24T05:36:32.546Z,4.73
2018-01-24T05:39:00.889Z,3.63
2018-01-24T05:41:29.807Z,3.63
2018-01-24T05:43:58.364Z,4.77
2018-01-24T05:46:26.242Z,3.83
2018-01-24T05:48:54.135Z,4.63
2018-01-24T05:51:22.913Z,5.73
2018-01-24T05:53:50.864Z,4.30
2018-01-24T05:56:18.489Z,4.67
2018-01-24T05:58:46.187Z,3.73
2018-01-24T06:01:14.300Z,4.53
2018-01-24T06:03:43.180Z,4.10
2018-01-24T06:06:10.862Z,3.80
2018-01-24T06:08:38.565Z,3.67
2018-01-24T06:11:07.029Z,4.00
2018-01-24T06:13:35.970Z,3.77
2018-01-24T06:16:03.891Z,4.60
2018-01-24T06:18:31.802Z,5.20
2018-01-24T06:20:59.590Z,4.03
2018-01-24T06:23:28.169Z,5.10
2018-01-24T06:25:55.845Z,5.40
2018-01-24T06:28:24.358Z,4.40
2018-01-24T06:30:52.811Z,5.93
2018-01-24T06:33:22.112Z,4.70
2018-01-24T06:35:51.576Z,4.47
2018-01-24T06:38:19.254Z,5.40
2018-01-24T06:40:47.456Z,5.10
2018-01-24T06:43:15.419Z,5.73
2018-01-24T06:45:44.739Z,4.53
2018-01-24T06:48:12.362Z,5.03
2018-01-24T06:50:40.638Z,4.93
2018-01-24T06:53:08.372Z,4.37
2018-01-24T06:55:36.261Z,5.00
2018-01-24T06:58:04.178Z,4.70
2018-01-24T07:00:32.913Z,5.27
2018-01-24T07:03:00.530Z,4.63
2018-01-24T07:05:29.187Z,4.90
2018-01-24T07:07:57.743Z,3.90
2018-01-24T07:10:25.571Z,4.33
2018-01-24T07:13:05.255Z,4.83
2018-01-24T07:15:33.519Z,5.03
2018-01-24T07:18:02.623Z,5.37
2018-01-24T07:20:30.575Z,4.70
2018-01-24T07:22:58.440Z,5.47
2018-01-24T07:25:26.131Z,4.63
2018-01-24T07:27:58.534Z,4.90
2018-01-24T07:30:27.975Z,5.50
2018-01-24T07:33:08.844Z,5.53
2018-01-24T07:35:41.485Z,5.03
2018-01-24T07:38:18.885Z,5.97
2018-01-24T07:40:48.740Z,5.03
2018-01-24T07:43:16.765Z,5.00
2018-01-24T07:45:44.433Z,5.10
2018-01-24T07:48:12.820Z,4.93
2018-01-24T07:50:40.450Z,5.23
2018-01-24T07:53:08.000Z,5.17
2018-01-24T07:55:35.594Z,5.57
2018-01-24T07:58:03.186Z,3.97
2018-01-24T08:00:32.044Z,6.40
2018-01-24T08:03:00.661Z,5.50
2018-01-24T08:05:28.349Z,5.90
2018-01-24T08:07:57.609Z,5.87
2018-01-24T08:10:26.795Z,4.77
2018-01-24T08:12:54.562Z,4.60
2018-01-24T08:15:22.195Z,5.40
2018-01-24T08:17:50.051Z,4.63
2018-01-24T08:20:17.629Z,4.63
2018-01-24T08:22:45.187Z,5.00
2018-01-24T08:25:12.926Z,4.70
2018-01-24T08:27:40.539Z,4.80
2018-01-24T08:30:09.034Z,5.03
2018-01-24T08:32:40.162Z,4.50
2018-01-24T08:35:08.554Z,5.10
2018-01-24T08:37:41.559Z,5.20
2018-01-24T08:40:11.055Z,3.90
2018-01-24T08:42:39.452Z,5.30
2018-01-24T08:45:07.439Z,4.60
2018-01-24T08:47:35.212Z,5.27
2018-01-24T08:50:03.371Z,5.93
2018-01-24T08:52:30.968Z,4.47
2018-01-24T08:54:58.530Z,4.83
2018-01-24T08:57:26.902Z,4.43
2018-01-24T08:59:54.579Z,5.47
2018-01-24T09:02:22.420Z,4.60
2018-01-24T09:04:50.036Z,4.70
2018-01-24T09:07:17.653Z,4.87
2018-01-24T09:09:45.250Z,5.30
2018-01-24T09:12:13.592Z,4.13
2018-01-24T09:14:41.240Z,5.07
2018-01-24T09:17:08.889Z,4.87
2018-01-24T09:19:37.542Z,4.20
2018-01-24T09:22:05.996Z,4.07
2018-01-24T09:24:33.562Z,4.70
2018-01-24T09:27:01.326Z,4.97
2018-01-24T09:29:29.597Z,4.67
2018-01-24T09:31:58.583Z,4.50
2018-01-24T09:34:26.210Z,4.40
2018-01-24T09:36:53.762Z,3.20
2018-01-24T09:39:21.395Z,4.47
2018-01-24T09:41:50.269Z,4.40
2018-01-24T09:44:17.904Z,4.10
2018-01-24T09:46:46.372Z,3.80
2018-01-24T09:49:13.941Z,3.67
2018-01-24T09:51:41.489Z,3.63
2018-01-24T09:54:09.130Z,4.20
2018-01-24T09:56:38.256Z,3.00
2018-01-24T09:59:05.815Z,4.30
2018-01-24T10:01:33.410Z,3.00
2018-01-24T10:04:01.030Z,3.53
2018-01-24T10:06:28.669Z,3.60
2018-01-24T10:08:57.039Z,4.20
2018-01-24T10:11:24.611Z,3.40
2018-01-24T10:13:53.914Z,4.00
2018-01-24T10:16:22.388Z,4.30
2018-01-24T10:18:50.956Z,3.00
2018-01-24T10:21:18.779Z,3.43
2018-01-24T10:23:46.410Z,3.67
2018-01-24T10:26:14.814Z,3.70
2018-01-24T10:28:43.267Z,3.97
2018-01-24T10:31:11.700Z,4.10
2018-01-24T10:33:39.621Z,3.90
2018-01-24T10:36:09.068Z,4.43
2018-01-24T10:38:36.682Z,4.30
2018-01-24T10:41:05.046Z,3.60
2018-01-24T10:43:33.069Z,3.73
2018-01-24T10:46:00.858Z,3.77
2018-01-24T10:48:28.438Z,3.57
2018-01-24T10:50:56.026Z,2.90
2018-01-24T10:53:24.004Z,3.40
2018-01-24T10:55:51.606Z,2.90
2018-01-24T10:58:19.166Z,2.80
2018-01-24T11:00:46.775Z,3.50
2018-01-24T11:03:16.227Z,2.30
2018-01-24T11:05:43.805Z,3.73
2018-01-24T11:08:11.902Z,3.30
2018-01-24T11:10:39.684Z,3.00
2018-01-24T11:13:08.258Z,3.23
2018-01-24T11:15:36.798Z,3.20
2018-01-24T11:18:05.148Z,3.10
2018-01-24T11:20:32.768Z,3.33
2018-01-24T11:23:01.393Z,3.17
2018-01-24T11:25:29.285Z,3.03
2018-01-24T11:27:56.856Z,3.40
2018-01-24T11:30:24.588Z,3.60
2018-01-24T11:32:52.199Z,2.90
2018-01-24T11:35:20.074Z,3.23
2018-01-24T11:37:47.774Z,2.77
2018-01-24T11:40:15.345Z,3.13
2018-01-24T11:42:42.917Z,3.40
2018-01-24T11:45:10.688Z,2.87
2018-01-24T11:47:38.779Z,3.70
2018-01-24T11:50:06.487Z,2.93
2018-01-24T11:52:34.155Z,3.40
2018-01-24T11:55:01.782Z,3.30
2018-01-24T11:57:29.406Z,3.10
2018-01-24T11:59:57.104Z,2.93
2018-01-24T12:02:24.740Z,2.70
2018-01-24T12:04:52.602Z,2.33
2018-01-24T12:07:20.418Z,3.23
2018-01-24T12:09:48.092Z,2.63
2018-01-24T12:12:16.445Z,2.37
2018-01-24T12:14:44.516Z,2.20
2018-01-24T12:17:12.869Z,2.70
2018-01-24T12:19:40.754Z,2.93
2018-01-24T12:22:08.490Z,3.27
2018-01-24T12:24:36.335Z,2.73
2018-01-24T12:27:04.996Z,2.40
2018-01-24T12:29:32.662Z,2.77
2018-01-24T12:32:01.139Z,2.57
2018-01-24T12:34:28.718Z,2.30
2018-01-24T12:36:57.622Z,2.23
2018-01-24T12:39:25.790Z,2.40
2018-01-24T12:41:53.411Z,3.30
2018-01-24T12:44:21.070Z,1.87
2018-01-24T12:46:48.684Z,1.77
2018-01-24T12:49:17.439Z,1.87
2018-01-24T12:51:46.021Z,1.73
2018-01-24T12:54:13.671Z,1.97
2018-01-24T12:56:41.277Z,1.73
2018-01-24T12:59:10.618Z,1.70
2018-01-24T13:01:38.406Z,1.63
2018-01-24T13:04:06.157Z,2.00
2018-01-24T13:06:33.789Z,1.80
2018-01-24T13:09:01.527Z,1.77
2018-01-24T13:11:29.922Z,1.67
2018-01-24T13:13:57.832Z,1.57
2018-01-24T13:16:25.503Z,1.50
2018-01-24T13:18:53.085Z,1.87
2018-01-24T13:21:21.627Z,1.50
2018-01-24T13:23:49.242Z,2.00
2018-01-24T13:26:17.779Z,1.33
2018-01-24T13:28:45.531Z,1.77
2018-01-24T13:31:13.285Z,1.70
2018-01-24T13:33:41.207Z,1.70
2018-01-24T13:36:09.629Z,2.00
2018-01-24T13:38:37.557Z,1.80
2018-01-24T13:41:05.176Z,2.43
2018-01-24T13:43:32.815Z,2.20
2018-01-24T13:46:00.501Z,1.60
2018-01-24T13:48:28.550Z,1.40
2018-01-24T13:50:57.293Z,1.70
2018-01-24T13:53:24.886Z,1.70
2018-01-24T13:55:52.443Z,1.80
2018-01-24T13:58:20.984Z,4.00
2018-01-24T14:00:48.731Z,1.77
2018-01-24T14:03:17.439Z,1.50
2018-01-24T14:05:46.015Z,2.07
2018-01-24T14:08:13.678Z,2.43
2018-01-24T14:10:41.443Z,2.00
2018-01-24T14:13:09.064Z,1.90
2018-01-24T14:15:36.902Z,2.50
2018-01-24T14:18:04.701Z,2.57
2018-01-24T14:20:33.136Z,2.60
2018-01-24T14:23:00.749Z,2.53
2018-01-24T14:25:28.428Z,1.90
2018-01-24T14:27:56.301Z,2.87
2018-01-24T14:30:23.975Z,1.80
2018-01-24T14:32:51.561Z,2.83
2018-01-24T14:35:19.198Z,1.50
2018-01-24T14:37:46.790Z,1.60
2018-01-24T14:40:14.628Z,4.07
2018-01-24T14:42:42.292Z,4.30
2018-01-24T14:45:09.991Z,3.37
2018-01-24T14:47:38.478Z,2.80
2018-01-24T14:50:06.838Z,5.13
2018-01-24T14:52:34.664Z,4.93
2018-01-24T14:55:02.245Z,5.23
2018-01-24T14:57:29.854Z,1.73
2018-01-24T14:59:59.635Z,2.23
2018-01-24T15:02:27.309Z,2.20
2018-01-24T15:04:56.006Z,2.07
2018-01-24T15:07:24.420Z,2.00
2018-01-24T15:09:51.985Z,1.90
2018-01-24T15:12:19.695Z,2.70
2018-01-24T15:14:47.325Z,2.77
2018-01-24T15:17:16.084Z,2.73
2018-01-24T15:19:43.864Z,2.63
2018-01-24T15:22:11.436Z,2.67
2018-01-24T15:24:39.535Z,3.30
2018-01-24T15:27:09.060Z,2.47
2018-01-24T15:29:37.729Z,2.20
2018-01-24T15:32:05.439Z,2.20
2018-01-24T15:34:33.060Z,3.00
2018-01-24T15:37:00.743Z,3.40
2018-01-24T15:39:28.417Z,3.30
2018-01-24T15:41:56.724Z,3.00
2018-01-24T15:44:24.434Z,2.73
2018-01-24T15:46:52.796Z,3.13
2018-01-24T15:49:21.247Z,2.90
2018-01-24T15:51:48.964Z,2.70
2018-01-24T15:54:17.415Z,2.30
2018-01-24T15:56:44.993Z,3.20
2018-01-24T15:59:12.622Z,3.67
2018-01-24T16:01:40.240Z,2.87
2018-01-24T16:04:08.016Z,2.77
2018-01-24T16:06:35.739Z,2.37
2018-01-24T16:09:03.550Z,3.13
2018-01-24T16:11:31.225Z,2.70
2018-01-24T16:13:58.867Z,2.70
2018-01-24T16:16:27.259Z,2.73
2018-01-24T16:18:54.872Z,2.07
2018-01-24T16:21:23.454Z,2.70
2018-01-24T16:23:51.082Z,2.63
2018-01-24T16:26:18.750Z,2.50
2018-01-24T16:28:46.470Z,2.50
2018-01-24T16:31:14.233Z,2.40
2018-01-24T16:33:42.617Z,2.73
2018-01-24T16:36:10.350Z,2.47
2018-01-24T16:38:38.483Z,3.00
2018-01-24T16:41:06.769Z,3.53
2018-01-24T16:43:35.230Z,2.80
2018-01-24T16:46:03.294Z,2.47
2018-01-24T16:48:30.961Z,3.70
2018-01-24T16:50:58.919Z,3.83
2018-01-24T16:53:27.385Z,4.47
2018-01-24T16:55:55.278Z,3.73
2018-01-24T16:58:23.025Z,3.20
2018-01-24T17:00:51.676Z,2.63
2018-01-24T17:03:19.571Z,4.30
2018-01-24T17:05:48.088Z,3.07
2018-01-24T17:08:15.853Z,3.67
2018-01-24T17:10:44.458Z,3.60
2018-01-24T17:13:12.060Z,2.67
2018-01-24T17:15:39.669Z,2.80
2018-01-24T17:18:07.286Z,3.30
2018-01-24T17:20:36.355Z,2.80
2018-01-24T17:23:04.260Z,3.17
2018-01-24T17:25:33.157Z,3.53
2018-01-24T17:28:02.992Z,2.87
2018-01-24T17:30:30.688Z,2.70
2018-01-24T17:32:59.285Z,2.83
2018-01-24T17:35:27.207Z,3.77
2018-01-24T17:37:56.338Z,2.43
2018-01-24T17:40:24.079Z,3.00
2018-01-24T17:42:51.650Z,2.80
2018-01-24T17:45:19.740Z,3.13
2018-01-24T17:47:47.775Z,2.60
2018-01-24T17:50:16.064Z,6.30
2018-01-24T17:52:44.831Z,3.30
2018-01-24T17:55:13.223Z,3.20
2018-01-24T17:57:40.779Z,3.07
2018-01-24T18:00:10.337Z,3.10
2018-01-24T18:02:38.232Z,3.20
2018-01-24T18:05:05.917Z,3.00
2018-01-24T18:07:33.492Z,3.40
2018-01-24T18:10:01.399Z,3.13
2018-01-24T18:12:29.149Z,2.70
2018-01-24T18:14:56.931Z,2.90
2018-01-24T18:17:24.564Z,2.43
2018-01-24T18:19:52.290Z,2.73
2018-01-24T18:22:20.896Z,2.17
2018-01-24T18:24:48.538Z,1.97
2018-01-24T18:27:17.965Z,2.03
2018-01-24T18:29:45.524Z,2.63
2018-01-24T18:32:13.183Z,2.63
2018-01-24T18:34:41.067Z,2.17
2018-01-24T18:37:09.454Z,2.40
2018-01-24T18:39:37.128Z,3.13
2018-01-24T18:42:04.908Z,3.10
2018-01-24T18:44:32.744Z,2.20
2018-01-24T18:47:00.579Z,2.20
2018-01-24T18:49:28.191Z,2.43
2018-01-24T18:51:56.381Z,2.50
2018-01-24T18:54:24.142Z,2.03
2018-01-24T18:56:52.053Z,1.60
2018-01-24T18:59:19.778Z,1.70
2018-01-24T19:01:47.425Z,2.00
2018-01-24T19:04:15.084Z,2.00
2018-01-24T19:06:42.762Z,2.40
2018-01-24T19:09:11.174Z,1.40
2018-01-24T19:11:39.760Z,2.13
2018-01-24T19:14:08.257Z,1.70
2018-01-24T19:16:37.603Z,1.80
2018-01-24T19:19:05.168Z,1.97
2018-01-24T19:21:32.738Z,1.63
2018-01-24T19:24:00.588Z,1.97
2018-01-24T19:26:30.556Z,2.30
2018-01-24T19:28:59.115Z,2.17
2018-01-24T19:31:26.749Z,2.00
2018-01-24T19:33:54.428Z,1.60
2018-01-24T19:36:22.114Z,2.17
2018-01-24T19:38:50.341Z,2.10
2018-01-24T19:41:17.964Z,2.10
2018-01-24T19:43:46.472Z,2.40
2018-01-24T19:46:15.417Z,2.27
2018-01-24T19:48:44.270Z,2.37
2018-01-24T19:51:11.929Z,1.93
2018-01-24T19:53:40.613Z,2.00
2018-01-24T19:56:08.241Z,2.40
2018-01-24T19:58:36.634Z,1.87
2018-01-24T20:01:04.311Z,2.47
2018-01-24T20:03:32.227Z,2.20
2018-01-24T20:06:00.004Z,2.20
2018-01-24T20:08:28.489Z,2.10
2018-01-24T20:10:56.735Z,2.37
2018-01-24T20:13:24.516Z,2.80
2018-01-24T20:15:52.410Z,2.90
2018-01-24T20:18:20.077Z,2.23
2018-01-24T20:20:48.647Z,2.20
2018-01-24T20:23:16.891Z,1.83
2018-01-24T20:25:44.683Z,2.07
2018-01-24T20:28:13.249Z,1.93
2018-01-24T20:30:41.051Z,2.30
2018-01-24T20:33:09.601Z,2.47
2018-01-24T20:35:37.891Z,2.40
2018-01-24T20:38:06.312Z,2.77
2018-01-24T20:40:34.032Z,2.40
2018-01-24T20:43:02.631Z,2.30
2018-01-24T20:45:31.232Z,2.63
2018-01-24T20:47:59.597Z,2.50
2018-01-24T20:50:28.357Z,2.20
2018-01-24T20:52:56.016Z,2.07
2018-01-24T20:55:25.512Z,1.77
2018-01-24T20:57:53.206Z,1.97
2018-01-24T21:00:21.682Z,2.47
2018-01-24T21:02:49.314Z,2.70
2018-01-24T21:05:17.501Z,2.20
2018-01-24T21:07:47.152Z,2.10
2018-01-24T21:10:15.618Z,2.33
2018-01-24T21:12:44.001Z,2.67
2018-01-24T21:15:11.931Z,2.13
2018-01-24T21:17:39.788Z,2.20
2018-01-24T21:20:10.120Z,2.70
2018-01-24T21:22:37.800Z,2.93
2018-01-24T21:25:05.396Z,2.43
2018-01-24T21:27:33.839Z,2.20
2018-01-24T21:30:13.140Z,2.10
2018-01-24T21:32:47.536Z,3.20
2018-01-24T21:35:21.884Z,2.47
2018-01-24T21:37:49.613Z,2.60
2018-01-24T21:40:19.775Z,2.83
2018-01-24T21:42:47.590Z,2.80
2018-01-24T21:45:15.336Z,2.23
2018-01-24T21:47:43.776Z,2.30
2018-01-24T21:50:12.313Z,2.27
2018-01-24T21:52:39.967Z,2.63
2018-01-24T21:55:07.720Z,1.97
2018-01-24T21:57:36.499Z,2.27
2018-01-24T22:00:04.305Z,2.60
2018-01-24T22:02:33.624Z,2.60
2018-01-24T22:05:02.068Z,2.50
2018-01-24T22:07:29.661Z,2.30
2018-01-24T22:09:57.279Z,2.20
2018-01-24T22:12:24.996Z,2.77
2018-01-24T22:14:52.772Z,2.73
2018-01-24T22:17:20.409Z,1.80
2018-01-24T22:19:48.953Z,3.10
2018-01-24T22:22:16.537Z,2.00
2018-01-24T22:24:44.110Z,2.57
2018-01-24T22:27:11.707Z,2.93
2018-01-24T22:29:39.463Z,2.10
2018-01-24T22:32:07.073Z,2.40
2018-01-24T22:34:34.738Z,2.53
2018-01-24T22:37:02.312Z,2.70
2018-01-24T22:39:30.020Z,2.67
2018-01-24T22:41:58.388Z,1.93
2018-01-24T22:44:25.972Z,1.77
2018-01-24T22:46:53.735Z,1.90
2018-01-24T22:49:21.428Z,1.97
2018-01-24T22:51:49.123Z,2.30
2018-01-24T22:54:17.546Z,2.37
2018-01-24T22:56:45.141Z,2.57
2018-01-24T22:59:13.514Z,1.93
2018-01-24T23:01:41.165Z,2.40
2018-01-24T23:04:09.198Z,2.20
2018-01-24T23:06:36.825Z,2.70
2018-01-24T23:09:04.483Z,2.10
2018-01-24T23:11:32.101Z,2.30
2018-01-24T23:13:59.762Z,2.30
2018-01-24T23:16:27.418Z,2.17
2018-01-24T23:18:55.169Z,2.30
2018-01-24T23:21:22.808Z,2.53
2018-01-24T23:23:51.167Z,2.30
2018-01-24T23:26:19.990Z,2.60
2018-01-24T23:28:49.278Z,1.83
2018-01-24T23:31:16.909Z,2.50
2018-01-24T23:33:44.575Z,2.80
2018-01-24T23:36:12.245Z,2.33
2018-01-24T23:38:40.635Z,2.47
2018-01-24T23:41:09.133Z,2.60
2018-01-24T23:43:37.568Z,2.27
2018-01-24T23:46:05.270Z,2.50
2018-01-24T23:48:32.900Z,2.07
2018-01-24T23:51:00.583Z,2.57
2018-01-24T23:53:30.069Z,2.63
2018-01-24T23:55:58.187Z,2.20
2018-01-24T23:58:25.793Z,2.93
